Time;durP1;ratioP1;P1;durP2;ratioP2;P2;SDS_P1;SDS_P2;PMS_P1;PMS_P2;Temp;Humidity;BMP_temperature;BMP_pressure;BME280_temperature;BME280_humidity;BME280_pressure;Samples;Min_cycle;Max_cycle;Signal;HPM_P1;HPM_P2
2021/10/01 00:04:50;;;;;;;24.72;7.67;;;;;;;10.57;69.97;102269.46;1726596;83;21647;-60
2021/10/01 00:07:18;;;;;;;24.02;6.55;;;;;;;10.47;70.10;102271.34;1727102;83;21015;-61
2021/10/01 00:09:45;;;;;;;24.32;6.65;;;;;;;10.32;70.54;102270.58;1726126;83;21434;-61
2021/10/01 00:12:13;;;;;;;18.17;6.78;;;;;;;10.22;71.28;102268.88;1719452;81;21273;-60
2021/10/01 00:14:41;;;;;;;31.15;7.20;;;;;;;10.15;71.60;102276.55;1726349;83;21642;-60
2021/10/01 00:17:10;;;;;;;30.75;7.60;;;;;;;10.10;72.02;102277.91;1727374;83;21008;-59
2021/10/01 00:19:38;;;;;;;21.68;6.85;;;;;;;10.04;72.49;102282.86;1717228;82;21549;-59
2021/10/01 00:22:05;;;;;;;18.25;6.28;;;;;;;10.01;73.04;102278.88;1767405;81;21508;-60
2021/10/01 00:24:34;;;;;;;22.93;8.33;;;;;;;10.00;73.91;102278.44;1767805;79;20996;-60
2021/10/01 00:27:03;;;;;;;16.17;6.03;;;;;;;10.01;73.67;102274.86;1755695;81;21072;-60
2021/10/01 00:29:30;;;;;;;21.27;6.00;;;;;;;10.02;73.83;102269.06;1767889;81;20989;-61
2021/10/01 00:31:59;;;;;;;20.90;6.40;;;;;;;10.01;73.92;102268.16;1768671;80;20996;-60
2021/10/01 00:37:27;;;;;;;31.33;6.12;;;;;;;10.01;74.14;102268.62;1766948;81;21550;-60
2021/10/01 00:39:54;;;;;;;31.60;6.15;;;;;;;10.01;74.43;102268.16;1767693;81;21595;-60
2021/10/01 00:42:22;;;;;;;29.90;6.40;;;;;;;9.98;74.59;102264.17;1767986;81;21749;-60
2021/10/01 00:44:51;;;;;;;36.15;5.95;;;;;;;9.98;74.78;102256.59;1768495;81;21119;-60
2021/10/01 00:47:27;;;;;;;30.55;6.42;;;;;;;10.00;75.04;102261.02;1768645;81;21325;-60
2021/10/01 00:49:56;;;;;;;44.90;7.40;;;;;;;10.02;75.18;102261.02;1765445;80;21640;-60
2021/10/01 00:52:24;;;;;;;37.67;6.78;;;;;;;10.03;75.48;102252.95;1762456;79;21032;-59
2021/10/01 00:57:22;;;;;;;30.55;6.37;;;;;;;10.04;75.58;102258.75;1769012;80;21525;-60
2021/10/01 00:59:50;;;;;;;34.10;6.25;;;;;;;10.02;75.69;102259.21;1768606;81;20973;-61
2021/10/01 01:02:17;;;;;;;22.35;6.12;;;;;;;9.97;75.50;102261.52;1768150;81;21446;-61
2021/10/01 01:04:45;;;;;;;17.82;6.75;;;;;;;9.91;75.41;102259.77;1767557;81;21462;-61
2021/10/01 01:12:51;;;;;;;16.12;6.42;;;;;;;9.77;75.88;102251.84;1757856;81;22016;-59
2021/10/01 01:15:25;;;;;;;16.80;6.08;;;;;;;9.71;75.86;102258.13;1649285;86;21578;-59
2021/10/01 01:17:57;;;;;;;28.30;6.62;;;;;;;9.67;76.33;102250.12;1706232;82;22046;-61
2021/10/01 01:26:56;;;;;;;14.23;6.30;;;;;;;9.57;76.85;102248.86;1723202;82;21623;-61
2021/10/01 01:29:40;;;;;;;17.32;7.15;;;;;;;9.55;76.78;102255.11;1712889;83;21560;-59
2021/10/01 01:32:18;;;;;;;14.00;5.57;;;;;;;9.52;76.95;102256.47;1718769;83;21043;-59
2021/10/01 01:34:55;;;;;;;17.55;5.78;;;;;;;9.50;77.11;102254.26;1791097;78;20975;-59
2021/10/01 01:37:34;;;;;;;15.58;5.90;;;;;;;9.44;77.53;102250.73;1790550;80;20964;-61
2021/10/01 01:40:04;;;;;;;13.68;5.62;;;;;;;9.42;77.62;102251.63;1790035;78;21453;-61
2021/10/01 01:42:31;;;;;;;15.20;6.80;;;;;;;9.41;77.78;102253.86;1791189;80;20908;-61
2021/10/01 01:44:59;;;;;;;17.07;6.70;;;;;;;9.39;77.77;102249.84;1782421;80;21046;-61
2021/10/01 01:47:26;;;;;;;16.02;6.85;;;;;;;9.33;77.75;102252.56;1759654;78;21045;-61
2021/10/01 01:49:53;;;;;;;18.80;6.97;;;;;;;9.27;77.77;102250.80;1757931;80;21007;-61
2021/10/01 01:52:28;;;;;;;15.15;6.80;;;;;;;9.20;77.96;102250.87;1790226;80;21476;-61
2021/10/01 01:54:57;;;;;;;19.15;6.62;;;;;;;9.13;78.27;102247.33;1790660;80;21023;-61
2021/10/01 01:57:24;;;;;;;27.77;6.90;;;;;;;9.07;78.55;102245.56;1790737;80;21075;-61
2021/10/01 01:59:54;;;;;;;24.18;6.95;;;;;;;9.00;78.66;102244.70;1789647;80;21652;-61
2021/10/01 02:02:32;;;;;;;19.50;6.80;;;;;;;9.00;78.67;102245.16;1790964;80;21511;-62
2021/10/01 02:04:59;;;;;;;18.15;7.67;;;;;;;8.99;78.68;102248.73;1791127;80;21134;-61
2021/10/01 02:07:26;;;;;;;29.77;8.30;;;;;;;8.95;78.77;102250.95;1790754;80;21051;-61
2021/10/01 02:17:25;;;;;;;18.65;7.12;;;;;;;8.77;80.62;102246.14;1784765;78;21792;-61
2021/10/01 02:22:23;;;;;;;14.50;6.45;;;;;;;8.79;82.01;102248.36;1764294;80;21024;-61
2021/10/01 02:33:16;;;;;;;13.22;5.62;;;;;;;9.00;82.91;102240.69;1760024;81;39700;-60
2021/10/01 02:38:15;;;;;;;17.85;6.80;;;;;;;9.16;82.69;102255.34;1763158;80;21088;-61
2021/10/01 02:40:51;;;;;;;12.35;6.05;;;;;;;9.21;82.34;102258.88;1761243;81;21143;-61
2021/10/01 02:43:18;;;;;;;15.18;7.40;;;;;;;9.24;82.23;102257.98;1762591;81;21138;-61
2021/10/01 02:45:46;;;;;;;10.60;6.05;;;;;;;9.25;82.13;102255.28;1762420;80;21088;-60
2021/10/01 02:48:13;;;;;;;10.20;6.15;;;;;;;9.28;81.94;102259.73;1763335;81;21045;-60
2021/10/01 02:50:41;;;;;;;11.38;6.78;;;;;;;9.28;81.84;102265.99;1763085;81;21029;-60
2021/10/01 02:53:30;;;;;;;16.07;6.95;;;;;;;9.30;81.57;102250.81;1763003;81;21123;-61
2021/10/01 02:56:32;;;;;;;14.18;6.70;;;;;;;9.32;81.53;102257.48;1763096;81;21948;-61
2021/10/01 02:59:02;;;;;;;14.50;7.70;;;;;;;9.35;81.24;102257.45;1763285;81;21021;-60
2021/10/01 03:01:30;;;;;;;20.17;6.20;;;;;;;9.35;80.95;102258.80;1763138;81;21095;-60
2021/10/01 03:04:03;;;;;;;19.12;6.28;;;;;;;9.35;80.92;102259.27;1762806;81;21068;-61
2021/10/01 03:17:03;;;;;;;20.32;5.90;;;;;;;9.30;80.94;102260.61;1763003;81;21022;-60
2021/10/01 03:19:30;;;;;;;15.32;6.10;;;;;;;9.30;80.80;102256.59;1764389;79;21037;-60
2021/10/01 03:21:59;;;;;;;14.20;6.85;;;;;;;9.27;80.84;102255.28;1762371;81;21098;-60
2021/10/01 03:24:37;;;;;;;15.72;6.65;;;;;;;9.25;81.00;102263.30;1762454;81;21073;-60
2021/10/01 03:29:37;;;;;;;17.40;6.65;;;;;;;9.19;81.05;102263.81;1763479;80;21002;-61
2021/10/01 03:32:06;;;;;;;18.35;6.97;;;;;;;9.14;81.16;102264.70;1762689;81;21012;-61
2021/10/01 03:34:34;;;;;;;42.40;6.97;;;;;;;9.11;81.20;102265.19;1739607;81;21043;-60
2021/10/01 03:37:03;;;;;;;38.83;7.08;;;;;;;9.09;81.34;102266.52;1753909;81;21510;-60
2021/10/01 03:39:31;;;;;;;41.88;7.55;;;;;;;9.05;80.85;102261.17;1739982;81;21233;-61
2021/10/01 03:42:03;;;;;;;31.87;7.58;;;;;;;8.98;80.51;102264.34;1757766;80;21020;-61
2021/10/01 03:44:31;;;;;;;22.65;7.10;;;;;;;8.92;80.14;102262.58;1763690;81;21023;-60
2021/10/01 03:52:17;;;;;;;26.35;9.28;;;;;;;8.63;78.98;102265.34;1762203;80;21600;-59
2021/10/01 03:54:47;;;;;;;15.88;8.48;;;;;;;8.49;78.92;102264.88;1761973;81;21048;-59
2021/10/01 03:57:15;;;;;;;16.57;8.20;;;;;;;8.38;78.87;102264.02;1762304;80;21021;-60
2021/10/01 03:59:43;;;;;;;19.62;8.85;;;;;;;8.25;78.91;102270.70;1763572;80;21584;-59
2021/10/01 04:02:10;;;;;;;21.45;8.25;;;;;;;8.16;79.05;102272.06;1762660;81;20994;-60
2021/10/01 04:07:16;;;;;;;24.47;9.20;;;;;;;8.05;79.58;102273.83;1762276;81;21084;-59
2021/10/01 04:09:55;;;;;;;24.30;8.18;;;;;;;8.00;79.80;102273.39;1762854;80;21216;-58
2021/10/01 04:12:14;;;;;;;23.45;8.30;;;;;;;7.99;80.04;102274.74;1757017;81;22594;-60
2021/10/01 04:14:42;;;;;;;16.62;8.88;;;;;;;8.01;80.10;102280.97;1762916;81;20996;-60
2021/10/01 04:17:10;;;;;;;25.30;8.85;;;;;;;8.05;79.85;102280.50;1762786;81;21506;-59
2021/10/01 04:19:39;;;;;;;21.85;8.43;;;;;;;8.06;79.85;102277.84;1767177;78;21653;-59
2021/10/01 04:22:07;;;;;;;22.98;8.90;;;;;;;8.08;79.61;102280.53;1785801;80;21361;-59
2021/10/01 04:27:28;;;;;;;18.55;8.63;;;;;;;8.13;79.25;102281.42;1775341;80;21051;-59
2021/10/01 04:29:57;;;;;;;20.35;8.90;;;;;;;8.15;79.11;102285.84;1785401;80;21083;-59
2021/10/01 04:35:12;;;;;;;18.40;7.40;;;;;;;8.25;78.89;102290.75;1784994;80;21469;-59
2021/10/01 04:37:54;;;;;;;24.55;7.58;;;;;;;8.33;79.06;102292.08;1777980;80;21642;-59
2021/10/01 04:40:22;;;;;;;22.62;8.58;;;;;;;8.43;79.02;102290.29;1772972;80;21036;-61
2021/10/01 04:42:49;;;;;;;18.20;8.80;;;;;;;8.55;78.71;102293.42;1786060;80;21449;-61
2021/10/01 04:45:30;;;;;;;18.00;8.08;;;;;;;8.66;78.67;102292.06;1755607;80;21465;-59
2021/10/01 04:47:58;;;;;;;21.30;7.25;;;;;;;8.81;78.77;102293.38;1785884;80;21040;-60
2021/10/01 04:50:56;;;;;;;17.37;7.17;;;;;;;8.99;78.62;102300.91;1786045;80;21077;-60
2021/10/01 04:53:23;;;;;;;15.60;7.58;;;;;;;9.19;78.05;102297.27;1774354;80;21056;-60
2021/10/01 04:55:52;;;;;;;16.67;7.12;;;;;;;9.35;77.38;102305.64;1785841;80;20987;-61
2021/10/01 04:58:30;;;;;;;14.30;7.40;;;;;;;9.49;77.00;102316.27;1786461;80;21007;-59
2021/10/01 05:01:02;;;;;;;16.42;7.17;;;;;;;9.60;76.58;102306.41;1780465;80;21056;-59
2021/10/01 05:03:54;;;;;;;12.90;7.70;;;;;;;9.77;76.10;102321.92;1777212;80;23017;-59
2021/10/01 05:06:35;;;;;;;16.87;7.53;;;;;;;9.88;75.53;102320.08;1781439;80;22148;-61
2021/10/01 05:09:20;;;;;;;;;;;;;;;9.96;74.90;102312.00;1788400;78;21091;-60
2021/10/01 05:14:44;;;;;;;21.17;8.35;;;;;;;10.18;74.44;102316.72;1776841;80;21023;-59
2021/10/01 05:17:29;;;;;;;;;;;;;;;10.32;74.05;102315.25;1787895;80;21875;-59
2021/10/01 05:22:59;;;;;;;14.23;6.97;;;;;;;10.89;73.04;102321.89;1785537;80;21464;-60
2021/10/01 05:25:44;;;;;;;19.48;7.37;;;;;;;11.31;71.56;102324.07;1784838;80;21110;-61
2021/10/01 05:31:02;;;;;;;17.95;6.95;;;;;;;12.50;67.86;102332.17;1786386;80;21296;-59
2021/10/01 05:33:29;;;;;;;11.30;6.83;;;;;;;13.00;65.64;102325.86;1785070;80;21069;-60
2021/10/01 05:36:18;;;;;;;10.35;6.70;;;;;;;13.32;64.94;102327.88;1785654;79;21024;-60
2021/10/01 05:38:25;;;;;;;14.40;6.95;;;;;;;13.73;64.48;102329.25;1755742;80;20944;-61
2021/10/01 05:40:54;;;;;;;11.30;5.90;;;;;;;14.02;62.32;102346.54;1782210;80;21465;-61
2021/10/01 05:46:20;;;;;;;11.03;6.05;;;;;;;13.69;62.83;102339.69;1784174;80;21040;-60
2021/10/01 05:51:52;;;;;;;15.03;6.15;;;;;;;13.35;64.41;102347.11;1785127;78;21360;-61
2021/10/01 05:54:38;;;;;;;11.60;5.65;;;;;;;13.25;65.33;102350.45;1734168;82;21074;-60
2021/10/01 05:57:11;;;;;;;11.97;5.55;;;;;;;13.18;65.94;102333.56;1783859;79;21136;-60
2021/10/01 05:59:49;;;;;;;10.43;5.28;;;;;;;13.14;66.54;102338.56;1768686;80;21015;-60
2021/10/01 06:02:18;;;;;;;11.15;5.37;;;;;;;13.05;66.69;102345.49;1773809;80;21036;-60
2021/10/01 06:04:47;;;;;;;11.43;5.10;;;;;;;13.01;67.33;102333.02;1781588;80;21019;-61
2021/10/01 06:07:15;;;;;;;8.60;5.17;;;;;;;13.01;67.06;102357.25;1782965;78;21079;-60
2021/10/01 06:09:42;;;;;;;10.55;5.37;;;;;;;12.97;66.63;102346.98;1771732;79;22190;-60
2021/10/01 06:12:10;;;;;;;13.83;5.37;;;;;;;12.87;66.06;102350.31;1774024;78;21561;-61
2021/10/01 06:14:44;;;;;;;16.48;5.33;;;;;;;12.81;66.92;102344.15;1770821;78;21066;-61
2021/10/01 06:17:15;;;;;;;11.03;5.55;;;;;;;12.79;68.14;102387.27;1766183;78;21643;-61
2021/10/01 06:19:57;;;;;;;12.93;6.05;;;;;;;12.79;67.93;102366.17;1777641;78;20940;-61
2021/10/01 06:22:24;;;;;;;11.33;5.90;;;;;;;12.70;68.24;102373.95;1728090;80;22004;-59
2021/10/01 06:24:52;;;;;;;10.55;5.45;;;;;;;12.68;68.43;102346.19;1737222;82;21035;-62
2021/10/01 06:29:50;;;;;;;13.32;5.35;;;;;;;12.69;69.35;102366.80;1763121;80;21050;-61
2021/10/01 06:37:17;;;;;;;10.65;5.62;;;;;;;12.83;69.60;102345.91;1780863;78;21563;-61
2021/10/01 06:39:44;;;;;;;10.85;5.40;;;;;;;12.89;69.51;102340.88;1776068;80;21062;-61
2021/10/01 06:42:14;;;;;;;14.78;5.90;;;;;;;12.92;69.17;102349.33;1771856;78;21121;-61
2021/10/01 06:44:44;;;;;;;10.60;5.40;;;;;;;13.00;69.79;102360.86;1776484;78;20917;-61
2021/10/01 06:47:18;;;;;;;10.08;5.42;;;;;;;13.07;69.17;102357.11;1775560;78;21766;-61
2021/10/01 08:20:27;;;;;;;7.47;3.85;;;;;;;13.52;63.03;102348.59;1730620;82;21098;-60
2021/10/01 08:22:54;;;;;;;11.25;3.72;;;;;;;13.52;62.91;102335.13;1776356;78;21252;-60
2021/10/01 08:27:56;;;;;;;8.08;4.45;;;;;;;13.68;60.94;102360.83;1780288;79;21622;-60
2021/10/01 08:32:54;;;;;;;13.65;3.83;;;;;;;13.71;59.28;102345.92;1779228;78;21583;-60
2021/10/01 08:35:24;;;;;;;6.95;4.30;;;;;;;13.65;58.57;102342.03;1737198;81;21481;-60
2021/10/01 08:37:52;;;;;;;10.43;3.70;;;;;;;13.63;59.69;102333.09;1771227;79;21122;-60
2021/10/01 08:40:20;;;;;;;11.68;3.98;;;;;;;13.70;59.72;102346.84;1780110;79;21055;-59
2021/10/01 08:42:49;;;;;;;6.70;3.70;;;;;;;13.77;60.50;102338.61;1746509;81;21059;-60
2021/10/01 08:45:24;;;;;;;8.13;4.20;;;;;;;13.86;57.55;102357.29;1780391;78;21110;-60
2021/10/01 08:47:51;;;;;;;7.05;3.10;;;;;;;13.90;57.31;102346.85;1775146;79;21512;-61
2021/10/01 08:50:20;;;;;;;8.55;4.47;;;;;;;13.85;55.56;102347.43;1773181;79;21066;-61
2021/10/01 08:53:05;;;;;;;7.28;3.52;;;;;;;13.81;55.43;102345.70;1768257;79;21046;-60
2021/10/01 08:55:33;;;;;;;6.15;3.67;;;;;;;13.78;55.36;102364.64;1748534;80;20971;-62
2021/10/01 08:58:01;;;;;;;5.15;3.10;;;;;;;13.77;56.14;102352.09;1784598;78;20979;-60
2021/10/01 09:03:05;;;;;;;9.68;3.22;;;;;;;13.68;55.42;102374.74;1776640;79;21346;-60
2021/10/01 09:05:33;;;;;;;5.95;3.12;;;;;;;13.67;54.19;102344.23;1785952;78;21674;-61
2021/10/01 09:08:19;;;;;;;6.62;3.20;;;;;;;13.68;52.96;102343.75;1792958;78;21617;-61
2021/10/01 09:11:02;;;;;;;5.53;3.30;;;;;;;13.71;53.73;102364.80;1783042;78;21066;-61
2021/10/01 09:13:34;;;;;;;13.85;3.37;;;;;;;13.78;55.19;102357.91;1786218;78;20963;-62
2021/10/01 09:18:33;;;;;;;9.35;3.00;;;;;;;13.85;52.74;102341.55;1788586;78;21027;-61
2021/10/01 09:21:17;;;;;;;6.25;2.90;;;;;;;13.92;53.24;102361.63;1790172;78;20955;-60
2021/10/01 09:24:04;;;;;;;6.22;2.80;;;;;;;13.92;53.72;102366.58;1788071;78;21082;-62
2021/10/01 09:26:33;;;;;;;5.37;2.80;;;;;;;13.95;53.57;102356.19;1781990;79;21130;-59
2021/10/01 09:29:03;;;;;;;5.90;2.98;;;;;;;13.94;53.74;102343.63;1780925;79;21114;-61
2021/10/01 09:34:26;;;;;;;3.62;2.37;;;;;;;13.99;52.58;102362.80;1784404;78;21423;-60
2021/10/01 09:37:07;;;;;;;5.45;2.98;;;;;;;13.99;50.84;102369.55;1709048;78;21098;-61
2021/10/01 09:39:38;;;;;;;5.35;2.65;;;;;;;13.97;50.62;102365.13;1777739;78;22309;-60
2021/10/01 09:42:27;;;;;;;8.20;2.75;;;;;;;13.90;50.20;102356.29;1749855;79;21299;-61
2021/10/01 09:44:59;;;;;;;10.93;3.00;;;;;;;13.91;50.34;102360.76;1781490;78;21355;-60
2021/10/01 09:47:36;;;;;;;3.65;2.45;;;;;;;13.87;50.78;102377.94;1776612;79;21022;-60
2021/10/01 09:53:02;;;;;;;5.60;2.90;;;;;;;13.90;51.21;102356.29;1706615;79;21491;-61
2021/10/01 09:55:39;;;;;;;5.03;2.55;;;;;;;13.93;49.91;102353.52;1774424;79;21503;-60
2021/10/01 09:58:17;;;;;;;6.30;2.72;;;;;;;13.99;49.58;102387.55;1785780;78;21043;-60
2021/10/01 10:00:58;;;;;;;5.42;2.70;;;;;;;13.98;49.38;102359.67;1773435;78;21716;-62
2021/10/01 10:03:30;;;;;;;4.25;2.92;;;;;;;13.95;48.87;102362.45;1783971;80;26541;-60
2021/10/01 10:06:23;;;;;;;7.37;2.80;;;;;;;13.92;49.00;102354.44;1776583;78;21847;-62
2021/10/01 10:08:50;;;;;;;5.00;2.80;;;;;;;13.95;48.99;102369.20;1786355;77;21023;-61
2021/10/01 10:11:23;;;;;;;6.33;2.80;;;;;;;13.99;49.11;102373.59;1770849;80;21054;-61
2021/10/01 10:21:59;;;;;;;5.17;3.08;;;;;;;14.15;49.78;102365.14;1775277;78;21078;-61
2021/10/01 10:24:26;;;;;;;6.72;3.05;;;;;;;14.11;50.04;102354.00;1774841;80;20981;-63
2021/10/01 10:26:57;;;;;;;5.03;3.20;;;;;;;14.15;50.59;102347.61;1775746;79;21079;-61
2021/10/01 10:29:23;;;;;;;7.00;3.10;;;;;;;14.23;50.38;102345.59;1781851;80;21040;-62
2021/10/01 10:31:53;;;;;;;7.55;3.30;;;;;;;14.28;50.62;102380.11;1778551;80;21086;-62
2021/10/01 10:34:29;;;;;;;4.17;2.65;;;;;;;14.30;50.15;102348.58;1777541;79;21062;-62
2021/10/01 10:45:24;;;;;;;7.10;2.50;;;;;;;14.18;49.10;102347.08;1692043;83;21091;-61
2021/10/01 10:48:11;;;;;;;4.70;2.67;;;;;;;14.18;48.69;102340.78;1685860;83;21033;-62
2021/10/01 10:53:39;;;;;;;9.28;2.65;;;;;;;14.21;47.46;102327.22;1686447;83;21556;-60
2021/10/01 10:56:07;;;;;;;5.60;2.67;;;;;;;14.24;48.33;102335.22;1687810;83;21115;-62
2021/10/01 10:58:49;;;;;;;8.80;2.70;;;;;;;14.30;47.98;102330.14;1655619;85;21775;-62
2021/10/01 11:04:19;;;;;;;;;;;;;;;14.39;46.92;102327.67;1674455;83;21170;-62
2021/10/01 11:06:47;;;;;;;5.97;2.72;;;;;;;14.44;47.35;102325.73;1677277;83;20222;-61
2021/10/01 11:12:10;;;;;;;11.50;3.27;;;;;;;14.65;47.85;102315.30;1729109;81;21102;-62
2021/10/01 11:14:40;;;;;;;11.27;3.30;;;;;;;14.72;47.17;102318.31;1731528;80;21153;-62
2021/10/01 11:17:16;;;;;;;9.70;3.17;;;;;;;14.73;46.79;102322.77;1734603;82;21815;-63
2021/10/01 11:19:48;;;;;;;4.55;2.20;;;;;;;14.71;47.29;102315.19;1771061;78;20995;-63
2021/10/01 11:22:42;;;;;;;5.10;2.62;;;;;;;14.70;46.24;102326.40;1765615;78;21608;-62
2021/10/01 11:25:17;;;;;;;4.78;2.42;;;;;;;14.65;46.54;102311.25;1737374;79;22171;-62
2021/10/01 11:27:54;;;;;;;9.15;2.70;;;;;;;14.56;47.10;102315.98;1745885;79;20995;-63
2021/10/01 11:30:23;;;;;;;3.42;2.70;;;;;;;14.59;46.97;102312.33;1724562;79;21009;-62
2021/10/01 11:32:50;;;;;;;3.55;2.47;;;;;;;14.57;47.39;102304.70;1751651;81;21029;-63
2021/10/01 11:35:24;;;;;;;8.83;2.72;;;;;;;14.60;47.24;102306.87;1721315;82;21087;-62
2021/10/01 11:37:51;;;;;;;7.90;2.90;;;;;;;14.65;47.48;102305.84;1709867;83;21819;-61
2021/10/01 11:40:27;;;;;;;5.85;2.70;;;;;;;14.66;47.00;102304.92;1699264;81;21553;-61
2021/10/01 11:42:58;;;;;;;8.70;3.08;;;;;;;14.62;46.78;102310.89;1706198;81;21053;-62
2021/10/01 11:45:34;;;;;;;6.35;2.72;;;;;;;14.56;47.66;102293.04;1713205;82;21118;-63
2021/10/01 11:48:08;;;;;;;9.40;3.00;;;;;;;14.55;47.69;102307.91;1716423;81;21088;-63
2021/10/01 11:50:47;;;;;;;4.17;2.80;;;;;;;14.54;48.17;102298.05;1693303;81;21584;-62
2021/10/01 11:53:26;;;;;;;3.52;2.60;;;;;;;14.53;47.02;102289.08;1705666;83;21736;-63
2021/10/01 11:56:06;;;;;;;6.05;2.55;;;;;;;14.57;46.75;102298.86;1721800;81;21961;-62
2021/10/01 11:58:35;;;;;;;6.37;2.75;;;;;;;14.56;46.58;102289.44;1705355;83;21099;-60
2021/10/01 12:01:21;;;;;;;6.78;2.90;;;;;;;14.56;46.54;102288.98;1701700;83;21074;-60
2021/10/01 12:03:54;;;;;;;4.85;2.62;;;;;;;14.56;47.38;102291.69;1748376;81;21657;-60
2021/10/01 12:06:25;;;;;;;7.28;2.90;;;;;;;14.62;47.84;102294.69;1750697;81;21084;-60
2021/10/01 12:09:04;;;;;;;4.97;3.10;;;;;;;14.70;47.91;102290.41;1748598;80;21550;-63
2021/10/01 12:11:36;;;;;;;9.00;2.77;;;;;;;14.74;48.29;102292.15;1774671;79;21435;-60
2021/10/01 12:14:13;;;;;;;9.20;2.92;;;;;;;14.80;47.73;102288.36;1752302;79;21128;-61
2021/10/01 12:16:42;;;;;;;5.67;2.95;;;;;;;14.83;47.49;102290.52;1764461;79;21552;-61
2021/10/01 12:19:13;;;;;;;7.85;2.52;;;;;;;14.83;48.02;102285.13;1724511;81;21088;-61
2021/10/01 12:21:40;;;;;;;5.65;2.80;;;;;;;14.85;47.56;102299.47;1747582;80;21060;-61
2021/10/01 12:24:12;;;;;;;9.60;3.02;;;;;;;14.81;47.24;102278.89;1758470;80;21084;-60
2021/10/01 12:26:44;;;;;;;8.08;2.87;;;;;;;14.81;47.45;102283.38;1756642;79;21572;-62
2021/10/01 12:29:14;;;;;;;10.85;3.15;;;;;;;14.84;47.45;102277.44;1773125;80;21139;-61
2021/10/01 12:34:41;;;;;;;3.72;2.50;;;;;;;14.90;47.06;102292.11;1764080;80;21078;-62
2021/10/01 12:39:43;;;;;;;5.55;3.12;;;;;;;14.80;48.25;102275.77;1773040;80;21111;-61
2021/10/01 12:42:16;;;;;;;5.05;2.60;;;;;;;14.82;48.55;102282.00;1757715;80;21512;-61
2021/10/01 12:45:07;;;;;;;5.75;2.85;;;;;;;14.86;48.73;102272.02;1764994;80;21548;-62
2021/10/01 12:50:30;;;;;;;5.65;2.47;;;;;;;14.90;48.41;102266.45;1765951;80;21060;-64
2021/10/01 12:53:08;;;;;;;4.95;2.58;;;;;;;14.94;47.93;102263.70;1777185;80;21030;-62
2021/10/01 12:55:39;;;;;;;9.13;2.47;;;;;;;14.95;47.51;102257.36;1737425;80;21465;-61
2021/10/01 12:58:08;;;;;;;6.75;2.60;;;;;;;14.93;47.17;102260.58;1764168;80;21166;-60
2021/10/01 13:00:37;;;;;;;9.35;2.60;;;;;;;14.95;47.39;102262.76;1722527;80;21576;-62
2021/10/01 13:03:07;;;;;;;4.08;2.62;;;;;;;14.92;48.11;102264.17;1758249;80;21023;-63
2021/10/01 13:08:39;;;;;;;9.10;3.15;;;;;;;14.84;47.84;102258.55;1770923;79;21204;-61
2021/10/01 13:11:20;;;;;;;5.00;2.70;;;;;;;14.78;48.38;102255.12;1765505;79;21047;-61
2021/10/01 13:14:03;;;;;;;7.62;2.50;;;;;;;14.78;48.24;102258.73;1761841;80;21079;-61
2021/10/01 13:16:31;;;;;;;7.80;2.52;;;;;;;14.76;48.33;102253.84;1765162;80;21738;-60
2021/10/01 13:19:04;;;;;;;8.78;2.55;;;;;;;14.78;48.39;102251.98;1773571;79;20990;-61
2021/10/01 13:21:31;;;;;;;9.03;2.67;;;;;;;14.80;48.45;102247.41;1771634;79;22206;-61
2021/10/01 13:26:42;;;;;;;4.62;2.85;;;;;;;14.85;48.72;102240.54;1754796;79;21044;-61
2021/10/01 13:29:11;;;;;;;3.35;2.30;;;;;;;14.84;48.34;102240.98;1755123;79;20996;-60
2021/10/01 13:34:24;;;;;;;2.60;2.20;;;;;;;14.87;48.17;102236.84;1738671;81;21473;-61
2021/10/01 13:36:51;;;;;;;6.28;2.20;;;;;;;14.87;48.43;102253.53;1719941;81;21041;-62
2021/10/01 13:39:18;;;;;;;8.95;2.52;;;;;;;14.85;48.10;102236.01;1745856;79;21049;-62
2021/10/01 13:41:59;;;;;;;7.47;2.70;;;;;;;14.84;48.44;102239.64;1740110;81;21068;-61
2021/10/01 13:44:25;;;;;;;3.70;2.30;;;;;;;14.85;48.85;102241.41;1743715;79;22352;-61
2021/10/01 13:46:52;;;;;;;2.85;2.52;;;;;;;14.92;48.18;102229.06;1749254;81;21942;-60
2021/10/01 13:49:20;;;;;;;5.10;2.42;;;;;;;14.92;48.06;102227.72;1757629;79;21166;-60
2021/10/01 13:51:47;;;;;;;3.70;2.22;;;;;;;14.89;48.35;102220.13;1749055;81;21527;-61
2021/10/01 13:54:14;;;;;;;5.37;2.17;;;;;;;14.96;48.77;102227.59;1756126;79;21509;-61
2021/10/01 13:56:41;;;;;;;4.90;2.50;;;;;;;14.96;48.52;102222.19;1758232;79;21111;-62
2021/10/01 13:59:08;;;;;;;4.60;2.45;;;;;;;14.99;48.33;102223.92;1748382;79;21534;-62
2021/10/01 14:01:38;;;;;;;5.67;2.30;;;;;;;15.00;47.71;102221.64;1738491;81;21526;-63
2021/10/01 14:04:14;;;;;;;7.60;2.92;;;;;;;14.97;47.79;102217.69;1758167;79;21095;-60
2021/10/01 14:06:41;;;;;;;6.60;2.55;;;;;;;14.98;47.64;102216.75;1754040;79;21646;-61
2021/10/01 14:09:09;;;;;;;5.05;2.25;;;;;;;14.97;47.87;102217.69;1744404;79;21636;-60
2021/10/01 14:11:43;;;;;;;5.87;2.35;;;;;;;14.97;47.88;102219.03;1748654;79;21844;-60
2021/10/01 14:14:10;;;;;;;2.93;2.50;;;;;;;15.01;47.76;102218.01;1752491;79;21084;-59
2021/10/01 14:16:52;;;;;;;3.92;2.05;;;;;;;15.01;47.88;102217.52;1746340;79;21627;-60
2021/10/01 14:19:22;;;;;;;5.45;2.10;;;;;;;15.03;48.04;102220.19;1751918;81;21418;-60
2021/10/01 14:21:49;;;;;;;3.67;2.20;;;;;;;15.04;48.04;102224.66;1747318;81;21061;-60
2021/10/01 14:24:16;;;;;;;4.03;2.10;;;;;;;15.00;48.35;102212.19;1744554;79;21338;-59
2021/10/01 14:26:59;;;;;;;6.20;2.60;;;;;;;14.99;48.60;102221.22;1747374;81;21048;-59
2021/10/01 14:31:58;;;;;;;8.25;2.22;;;;;;;14.92;48.91;102208.81;1748126;81;21028;-63
2021/10/01 14:34:25;;;;;;;5.37;2.08;;;;;;;14.98;48.87;102219.45;1756006;79;21108;-61
2021/10/01 14:36:52;;;;;;;10.20;3.60;;;;;;;14.99;49.07;102215.81;1759602;79;21068;-61
2021/10/01 14:39:20;;;;;;;3.35;2.40;;;;;;;14.98;48.79;102210.87;1750163;81;21064;-60
2021/10/01 14:41:47;;;;;;;3.92;2.35;;;;;;;14.96;48.65;102208.69;1743362;79;21061;-61
2021/10/01 14:44:15;;;;;;;6.37;2.55;;;;;;;14.90;48.88;102205.69;1746412;81;21609;-61
2021/10/01 14:46:50;;;;;;;4.67;2.30;;;;;;;14.85;49.01;102205.44;1711579;81;21500;-60
2021/10/01 14:49:18;;;;;;;9.45;2.25;;;;;;;14.80;48.88;102202.87;1714608;81;21125;-62
2021/10/01 14:51:46;;;;;;;3.75;2.62;;;;;;;14.76;49.15;102207.94;1709676;81;21589;-62
2021/10/01 14:54:13;;;;;;;4.33;2.22;;;;;;;14.79;49.22;102196.14;1712590;81;21040;-60
2021/10/01 14:56:41;;;;;;;5.35;2.40;;;;;;;14.78;49.50;102197.98;1713585;81;21573;-60
2021/10/01 14:59:08;;;;;;;6.08;2.30;;;;;;;14.83;49.63;102197.37;1716042;81;21096;-60
2021/10/01 15:04:18;;;;;;;4.53;2.60;;;;;;;14.80;49.89;102204.22;1719591;81;21428;-60
2021/10/01 15:06:46;;;;;;;7.28;2.35;;;;;;;14.78;50.30;102210.13;1705529;81;21116;-61
2021/10/01 15:09:14;;;;;;;8.80;2.55;;;;;;;14.72;50.60;102199.52;1705351;82;21704;-61
2021/10/01 15:12:00;;;;;;;14.53;2.58;;;;;;;14.69;50.09;102199.55;1701801;82;21388;-61
2021/10/01 15:14:27;;;;;;;4.78;2.37;;;;;;;14.67;49.17;102203.66;1754733;81;21752;-61
2021/10/01 15:17:06;;;;;;;4.25;1.90;;;;;;;14.66;48.99;102205.04;1752751;79;21607;-61
2021/10/01 15:19:33;;;;;;;6.87;2.55;;;;;;;14.66;48.83;102205.04;1763208;81;21110;-62
2021/10/01 15:22:01;;;;;;;3.75;2.10;;;;;;;14.64;48.25;102204.20;1754161;79;21072;-62
2021/10/01 15:27:14;;;;;;;6.58;2.65;;;;;;;14.71;48.39;102205.36;1761865;79;21084;-62
2021/10/01 15:30:05;;;;;;;3.22;2.40;;;;;;;14.69;48.50;102202.25;1763835;81;22563;-60
2021/10/01 15:32:34;;;;;;;5.85;2.30;;;;;;;14.66;48.49;102207.73;1763663;79;21040;-61
2021/10/01 15:35:03;;;;;;;7.83;2.30;;;;;;;14.64;48.74;102194.75;1750005;79;21113;-61
2021/10/01 15:37:33;;;;;;;3.95;2.25;;;;;;;14.63;48.73;102197.03;1764342;81;21060;-61
2021/10/01 15:40:00;;;;;;;10.32;2.50;;;;;;;14.66;48.63;102207.73;1767830;79;21548;-62
2021/10/01 15:42:28;;;;;;;6.58;2.20;;;;;;;14.65;48.85;102196.52;1766544;79;21088;-61
2021/10/01 15:44:55;;;;;;;5.65;2.42;;;;;;;14.67;49.04;102198.27;1768227;79;21057;-61
2021/10/01 15:47:22;;;;;;;9.75;2.37;;;;;;;14.70;49.51;102198.62;1765761;79;21509;-61
2021/10/01 15:49:56;;;;;;;5.47;2.30;;;;;;;14.68;48.43;102210.83;1742801;81;21557;-61
2021/10/01 15:52:40;;;;;;;4.30;2.08;;;;;;;14.67;48.44;102208.16;1759117;81;22363;-61